Time;durP1;ratioP1;P1;durP2;ratioP2;P2;SDS_P1;SDS_P2;PMS_P1;PMS_P2;Temp;Humidity;BMP_temperature;BMP_pressure;BME280_temperature;BME280_humidity;BME280_pressure;Samples;Min_cycle;Max_cycle;Signal;HPM_P1;HPM_P2
2022/09/08 00:01:15;;;;;;;;;;;;;;;22.58;59.77;99683.97;4430029;32;38061;-89
2022/09/08 00:03:43;;;;;;;;;;;;;;;22.23;61.06;99683.44;4428982;32;39057;-91
2022/09/08 00:06:11;;;;;;;;;;;;;;;22.26;60.84;99688.59;4415880;32;38638;-88
2022/09/08 00:08:39;;;;;;;;;;;;;;;22.50;59.95;99670.22;4415085;32;37296;-88
2022/09/08 00:11:07;;;;;;;;;;;;;;;22.13;61.05;99676.72;4414503;32;37531;-88
2022/09/08 00:13:35;;;;;;;;;;;;;;;22.35;60.44;99670.75;4416178;32;38055;-88
2022/09/08 00:16:02;;;;;;;;;;;;;;;22.38;60.28;99681.19;4403140;32;39417;-91
2022/09/08 00:18:36;;;;;;;;;;;;;;;22.48;59.89;99664.13;4403029;32;36603;-89
2022/09/08 00:21:03;;;;;;;;;;;;;;;22.39;60.22;99661.81;4427290;32;39105;-91
2022/09/08 00:23:31;;;;;;;;;;;;;;;22.67;59.24;99657.25;4429027;32;38239;-91
2022/09/08 00:25:59;;;;;;;;;;;;;;;21.92;61.53;99661.62;4415864;32;39224;-88
2022/09/08 00:28:26;;;;;;;;;;;;;;;22.34;60.18;99651.44;4429188;32;37381;-91
2022/09/08 00:30:56;;;;;;;;;;;;;;;22.48;59.66;99648.28;4429541;32;38373;-91
2022/09/08 00:33:24;;;;;;;;;;;;;;;21.79;61.69;99656.78;4429918;32;39180;-90
2022/09/08 00:35:51;;;;;;;;;;;;;;;22.30;60.28;99649.78;4415038;32;38573;-92
2022/09/08 00:38:22;;;;;;;;;;;;;;;22.46;59.78;99642.19;4429586;32;37027;-92
2022/09/08 00:40:49;;;;;;;;;;;;;;;22.32;60.25;99642.69;4429278;32;37937;-92
2022/09/08 00:43:32;;;;;;;;;;;;;;;22.34;60.20;99640.03;4429291;32;38310;-90
2022/09/08 00:46:04;;;;;;;;;;;;;;;22.41;59.71;99639.75;4429806;32;38593;-92
2022/09/08 00:48:32;;;;;;;;;;;;;;;22.21;60.38;99632.53;4415797;32;37000;-91
2022/09/08 00:51:00;;;;;;;;;;;;;;;22.27;60.17;99632.34;4414283;32;37940;-89
2022/09/08 00:53:28;;;;;;;;;;;;;;;22.35;59.76;99628.56;4415202;32;38305;-89
2022/09/08 00:55:55;;;;;;;;;;;;;;;22.41;59.49;99634.47;4429320;32;40433;-91
2022/09/08 00:58:23;;;;;;;;;;;;;;;22.25;60.02;99636.78;4429387;32;38193;-92
2022/09/08 01:00:50;;;;;;;;;;;;;;;22.25;59.92;99634.16;4414618;32;38255;-93
2022/09/08 01:03:17;;;;;;;;;;;;;;;22.00;60.84;99639.38;4415262;32;37842;-90
2022/09/08 01:05:51;;;;;;;;;;;;;;;21.80;61.29;99626.87;4429363;32;38765;-91
2022/09/08 01:14:42;;;;;;;;;;;;;;;22.08;60.32;99635.59;4416619;32;37668;-91
2022/09/08 01:17:10;;;;;;;;;;;;;;;21.88;61.10;99633.66;4429026;32;40148;-90
2022/09/08 01:19:38;;;;;;;;;;;;;;;22.17;60.09;99630.91;4414990;32;37516;-92
2022/09/08 01:22:21;;;;;;;;;;;;;;;21.85;61.15;99636.38;4415198;32;38704;-88
2022/09/08 01:24:54;;;;;;;;;;;;;;;21.88;61.13;99631.03;4429657;32;37905;-92
2022/09/08 01:27:29;;;;;;;;;;;;;;;21.92;60.87;99630.88;4430648;32;39672;-92
2022/09/08 01:30:01;;;;;;;;;;;;;;;22.06;60.22;99627.75;4417164;32;36476;-93
2022/09/08 01:32:29;;;;;;;;;;;;;;;21.98;60.35;99627.16;4430745;32;38356;-92
2022/09/08 01:34:56;;;;;;;;;;;;;;;21.86;60.80;99624.94;4416605;32;38514;-91
2022/09/08 01:37:24;;;;;;;;;;;;;;;22.04;60.05;99622.53;4430637;32;39113;-92
2022/09/08 01:39:51;;;;;;;;;;;;;;;22.09;59.86;99622.38;4431021;32;37693;-92
2022/09/08 01:42:18;;;;;;;;;;;;;;;21.66;61.28;99623.81;4431364;32;39224;-92
2022/09/08 01:44:46;;;;;;;;;;;;;;;21.93;60.43;99626.47;4430797;32;38833;-91
2022/09/08 01:47:13;;;;;;;;;;;;;;;21.46;62.02;99631.50;4431402;32;39818;-90
2022/09/08 01:49:40;;;;;;;;;;;;;;;21.76;61.07;99627.91;4413420;32;36867;-93
2022/09/08 01:52:08;;;;;;;;;;;;;;;21.70;61.32;99630.72;4415706;32;37647;-91
2022/09/08 01:54:35;;;;;;;;;;;;;;;21.75;60.87;99627.94;4431077;32;37878;-90
2022/09/08 01:57:03;;;;;;;;;;;;;;;21.75;60.95;99620.87;4431139;32;39021;-91
2022/09/08 01:59:30;;;;;;;;;;;;;;;21.66;61.07;99621.19;4415762;32;37555;-91
2022/09/08 02:01:58;;;;;;;;;;;;;;;21.70;60.93;99620.19;4427575;32;38277;-89
2022/09/08 02:04:26;;;;;;;;;;;;;;;21.56;61.35;99622.41;4428159;32;37771;-89
2022/09/08 02:06:53;;;;;;;;;;;;;;;21.75;60.77;99620.87;4415993;32;38596;-92
2022/09/08 02:09:20;;;;;;;;;;;;;;;21.79;60.58;99625.16;4416805;32;38157;-92
2022/09/08 02:11:48;;;;;;;;;;;;;;;21.79;60.58;99619.87;4430460;32;37174;-92
2022/09/08 02:14:15;;;;;;;;;;;;;;;21.76;60.68;99624.38;4430450;32;38219;-92
2022/09/08 02:16:43;;;;;;;;;;;;;;;21.85;60.25;99625.84;4411100;32;38181;-92
2022/09/08 02:19:11;;;;;;;;;;;;;;;21.89;59.95;99624.81;4430398;32;37436;-91
2022/09/08 02:21:39;;;;;;;;;;;;;;;21.91;59.83;99621.22;4430627;32;38164;-92
2022/09/08 02:24:06;;;;;;;;;;;;;;;21.71;60.70;99619.28;4413560;32;38169;-91
2022/09/08 02:26:33;;;;;;;;;;;;;;;21.64;60.97;99619.53;4417410;32;39168;-91
2022/09/08 02:29:00;;;;;;;;;;;;;;;21.66;60.74;99618.53;4430507;32;36365;-91
2022/09/08 02:31:28;;;;;;;;;;;;;;;21.65;60.64;99622.09;4430168;32;38923;-92
2022/09/08 02:33:55;;;;;;;;;;;;;;;21.68;60.55;99622.00;4385932;32;923786;-91
2022/09/08 02:36:23;;;;;;;;;;;;;;;21.45;61.09;99630.66;4415474;32;38989;-92
2022/09/08 02:38:50;;;;;;;;;;;;;;;21.48;61.11;99624.44;4414239;32;36690;-92
2022/09/08 02:41:18;;;;;;;;;;;;;;;21.13;62.31;99624.59;4410182;32;37145;-89
2022/09/08 02:43:46;;;;;;;;;;;;;;;21.35;61.49;99630.09;4416646;32;37968;-92
2022/09/08 02:46:14;;;;;;;;;;;;;;;21.32;61.49;99624.88;4430584;32;39262;-90
2022/09/08 02:48:41;;;;;;;;;;;;;;;21.44;61.03;99623.69;4404225;32;35912;-92
2022/09/08 02:51:09;;;;;;;;;;;;;;;21.53;60.83;99630.41;4415456;32;37132;-92
2022/09/08 02:53:37;;;;;;;;;;;;;;;21.46;61.03;99620.97;4416615;32;38217;-91
2022/09/08 02:56:05;;;;;;;;;;;;;;;21.34;61.26;99623.03;4415760;32;38956;-91
2022/09/08 02:58:32;;;;;;;;;;;;;;;21.39;61.37;99620.31;4430677;32;37659;-90
2022/09/08 03:00:59;;;;;;;;;;;;;;;21.52;60.73;99626.06;4430341;32;38330;-91
2022/09/08 03:03:27;;;;;;;;;;;;;;;21.58;60.25;99620.59;4416851;32;38511;-88
2022/09/08 03:05:54;;;;;;;;;;;;;;;21.29;61.17;99614.44;4430608;32;38830;-89
2022/09/08 03:08:24;;;;;;;;;;;;;;;21.46;60.66;99615.72;4416538;32;36734;-92
2022/09/08 03:10:51;;;;;;;;;;;;;;;21.66;59.80;99607.16;4404190;32;37775;-92
2022/09/08 03:13:19;;;;;;;;;;;;;;;21.60;59.98;99613.47;4385012;32;38309;-90
2022/09/08 03:15:46;;;;;;;;;;;;;;;21.44;60.92;99612.25;4397748;32;38913;-89
2022/09/08 03:18:14;;;;;;;;;;;;;;;21.35;60.71;99613.44;4398542;32;39522;-91
2022/09/08 03:20:41;;;;;;;;;;;;;;;21.33;60.72;99616.06;4399340;32;37923;-93
2022/09/08 03:23:14;;;;;;;;;;;;;;;21.31;60.98;99607.38;4385217;32;38546;-91
2022/09/08 03:25:41;;;;;;;;;;;;;;;21.29;61.24;99598.66;4386025;32;38730;-91
2022/09/08 03:28:08;;;;;;;;;;;;;;;21.39;60.69;99603.66;4398294;32;36815;-92
2022/09/08 03:30:36;;;;;;;;;;;;;;;21.34;60.66;99596.72;4398671;32;37808;-91
2022/09/08 03:33:03;;;;;;;;;;;;;;;21.18;61.33;99598.09;4398162;32;38165;-93
2022/09/08 03:35:31;;;;;;;;;;;;;;;21.50;60.16;99601.53;4399906;32;39431;-93
2022/09/08 03:37:58;;;;;;;;;;;;;;;21.26;60.85;99601.38;4399968;32;38446;-91
2022/09/08 03:40:26;;;;;;;;;;;;;;;21.22;61.10;99612.03;4399475;32;38169;-92
2022/09/08 03:42:53;;;;;;;;;;;;;;;21.00;61.97;99614.50;4399640;32;39169;-94
2022/09/08 03:45:22;;;;;;;;;;;;;;;21.10;61.63;99623.81;4386256;32;38679;-95
2022/09/08 03:47:49;;;;;;;;;;;;;;;21.25;60.95;99623.34;4398297;32;37431;-93
2022/09/08 03:50:17;;;;;;;;;;;;;;;21.17;61.32;99619.22;4399290;32;37795;-92
2022/09/08 03:52:44;;;;;;;;;;;;;;;21.22;61.10;99623.47;4398367;32;37647;-93
2022/09/08 03:55:11;;;;;;;;;;;;;;;21.18;61.34;99620.94;4385059;32;39989;-92
2022/09/08 03:57:39;;;;;;;;;;;;;;;20.92;62.38;99624.38;4385837;32;36981;-89
2022/09/08 04:00:08;;;;;;;;;;;;;;;21.22;61.22;99626.09;4415478;32;38197;-93
2022/09/08 04:02:37;;;;;;;;;;;;;;;21.37;60.39;99628.25;4416158;32;38833;-90
2022/09/08 04:05:05;;;;;;;;;;;;;;;21.40;60.32;99626.44;4414889;32;39011;-91
2022/09/08 04:07:34;;;;;;;;;;;;;;;21.31;60.70;99624.91;4416078;32;37913;-91
2022/09/08 04:10:02;;;;;;;;;;;;;;;21.01;61.88;99634.63;4415292;32;39086;-89
2022/09/08 04:12:40;;;;;;;;;;;;;;;21.32;60.69;99640.69;4415769;32;37563;-90
2022/09/08 04:15:07;;;;;;;;;;;;;;;21.08;61.90;99646.69;4429342;32;38971;-93
2022/09/08 04:17:35;;;;;;;;;;;;;;;21.30;61.03;99650.37;4409300;32;37930;-92
2022/09/08 04:20:03;;;;;;;;;;;;;;;21.32;60.83;99638.06;4428385;32;38740;-90
2022/09/08 04:22:30;;;;;;;;;;;;;;;21.25;61.17;99639.16;4429670;32;37578;-90
2022/09/08 04:24:57;;;;;;;;;;;;;;;21.26;61.20;99632.97;4429551;32;39083;-90
2022/09/08 04:27:25;;;;;;;;;;;;;;;21.13;61.53;99629.00;4429329;32;36967;-91
2022/09/08 04:29:52;;;;;;;;;;;;;;;21.39;60.84;99619.47;4418746;32;37666;-96
2022/09/08 04:32:19;;;;;;;;;;;;;;;21.37;60.67;99622.97;4418753;32;36702;-93
2022/09/08 04:34:49;;;;;;;;;;;;;;;21.33;61.00;99626.59;4419626;32;38509;-86
2022/09/08 04:37:18;;;;;;;;;;;;;;;21.44;60.68;99617.53;4431189;32;38276;-92
2022/09/08 04:39:47;;;;;;;;;;;;;;;21.37;61.13;99628.25;4412911;32;39485;-87
2022/09/08 04:42:15;;;;;;;;;;;;;;;21.20;62.01;99633.16;4416119;32;38052;-90
2022/09/08 04:44:42;;;;;;;;;;;;;;;21.17;61.98;99630.63;4414939;32;38373;-94
2022/09/08 04:47:09;;;;;;;;;;;;;;;21.46;61.13;99631.50;4416056;32;37595;-93
2022/09/08 04:49:37;;;;;;;;;;;;;;;21.32;61.71;99630.16;4430317;32;38280;-89
2022/09/08 04:52:04;;;;;;;;;;;;;;;21.34;61.82;99630.94;4427771;32;38401;-88
2022/09/08 04:54:31;;;;;;;;;;;;;;;21.34;61.89;99636.22;4429180;32;39939;-94
2022/09/08 04:56:59;;;;;;;;;;;;;;;21.34;62.42;99637.97;4415509;32;38013;-88
2022/09/08 04:59:27;;;;;;;;;;;;;;;21.71;61.11;99636.84;4431611;32;39160;-93
2022/09/08 05:01:55;;;;;;;;;;;;;;;21.63;61.36;99629.19;4431338;32;38816;-83
2022/09/08 05:04:22;;;;;;;;;;;;;;;21.63;61.57;99623.91;4431657;32;39792;-84
2022/09/08 05:06:52;;;;;;;;;;;;;;;21.83;61.25;99629.41;4432047;32;38311;-87
2022/09/08 05:09:19;;;;;;;;;;;;;;;21.63;62.37;99634.44;4432789;32;38795;-92
2022/09/08 05:11:46;;;;;;;;;;;;;;;21.96;61.30;99637.75;4430997;32;38226;-90
2022/09/08 05:14:13;;;;;;;;;;;;;;;22.06;60.97;99643.59;4431239;32;38677;-85
2022/09/08 05:16:40;;;;;;;;;;;;;;;22.12;61.04;99643.37;4431603;32;38204;-90
2022/09/08 05:19:10;;;;;;;;;;;;;;;22.16;60.26;99639.75;4418068;32;38982;-84
2022/09/08 05:21:38;;;;;;;;;;;;;;;22.21;60.10;99637.81;4397022;32;36893;-91
2022/09/08 05:24:05;;;;;;;;;;;;;;;22.37;60.05;99643.41;4418024;32;38926;-86
2022/09/08 05:26:32;;;;;;;;;;;;;;;22.42;59.72;99635.31;4395633;32;36403;-84
2022/09/08 05:29:02;;;;;;;;;;;;;;;22.55;58.67;99635.75;4401792;32;36843;-85
2022/09/08 05:31:29;;;;;;;;;;;;;;;22.58;58.62;99639.12;4405698;32;37688;-88
2022/09/08 05:33:58;;;;;;;;;;;;;;;22.62;58.33;99635.47;4418077;32;39156;-84
2022/09/08 05:36:27;;;;;;;;;;;;;;;22.69;58.35;99629.06;4405316;32;36042;-88
2022/09/08 05:38:54;;;;;;;;;;;;;;;22.62;58.44;99637.22;4416037;32;37583;-89
2022/09/08 05:41:22;;;;;;;;;;;;;;;22.78;58.66;99642.81;4401618;32;39850;-85
2022/09/08 05:43:53;;;;;;;;;;;;;;;22.79;58.01;99647.19;4415084;32;39521;-90
2022/09/08 05:46:20;;;;;;;;;;;;;;;22.78;57.77;99635.75;4415561;32;36991;-88
2022/09/08 05:48:50;;;;;;;;;;;;;;;22.87;57.68;99634.56;4412484;32;37853;-87
2022/09/08 05:51:18;;;;;;;;;;;;;;;22.97;57.66;99636.84;4401433;32;38748;-94
2022/09/08 05:53:47;;;;;;;;;;;;;;;22.98;57.47;99635.06;4403633;32;39031;-95
2022/09/08 05:56:18;;;;;;;;;;;;;;;23.02;57.61;99631.38;4405420;32;36806;-94
2022/09/08 05:58:50;;;;;;;;;;;;;;;22.91;57.51;99625.59;4399422;32;36989;-94
2022/09/08 06:01:24;;;;;;;;;;;;;;;23.18;55.94;99627.22;4428418;32;39162;-91
2022/09/08 06:03:52;;;;;;;;;;;;;;;23.17;55.97;99625.50;4417356;32;39081;-91
2022/09/08 06:06:19;;;;;;;;;;;;;;;23.33;56.15;99630.19;4431135;32;37919;-92
2022/09/08 06:08:46;;;;;;;;;;;;;;;23.25;56.27;99632.25;4429581;32;38723;-93
2022/09/08 06:11:14;;;;;;;;;;;;;;;23.29;55.46;99623.28;4431826;32;39350;-91
2022/09/08 06:13:41;;;;;;;;;;;;;;;23.20;55.18;99620.09;4431362;32;38590;-90
2022/09/08 06:16:10;;;;;;;;;;;;;;;23.34;54.90;99621.31;4430350;32;36855;-91
2022/09/08 06:18:39;;;;;;;;;;;;;;;23.15;55.47;99622.03;4424711;32;38687;-96
2022/09/08 06:21:10;;;;;;;;;;;;;;;22.92;56.69;99614.13;4430203;32;38054;-93
2022/09/08 06:23:38;;;;;;;;;;;;;;;23.14;55.44;99624.75;4417316;32;39150;-96
2022/09/08 06:26:26;;;;;;;;;;;;;;;23.53;54.84;99611.72;4431291;32;36751;-95
2022/09/08 06:29:26;;;;;;;;;;;;;;;23.48;54.10;99613.69;4415431;32;38706;-94
2022/09/08 06:31:56;;;;;;;;;;;;;;;23.41;54.58;99607.81;4389875;32;37812;-92
2022/09/08 06:34:26;;;;;;;;;;;;;;;23.37;54.38;99611.50;4413823;32;39546;-95
2022/09/08 06:36:55;;;;;;;;;;;;;;;23.50;53.96;99601.28;4421887;32;36950;-94
2022/09/08 06:39:33;;;;;;;;;;;;;;;23.57;53.83;99608.03;4403656;32;38703;-94
2022/09/08 06:42:04;;;;;;;;;;;;;;;23.83;52.44;99606.13;4430150;32;37470;-92
2022/09/08 06:44:33;;;;;;;;;;;;;;;23.78;52.64;99597.56;4412559;32;39449;-95
2022/09/08 06:47:03;;;;;;;;;;;;;;;23.63;53.59;99597.22;4402879;32;37671;-95
2022/09/08 06:49:30;;;;;;;;;;;;;;;23.78;53.37;99598.41;4420386;32;38340;-89
2022/09/08 06:52:07;;;;;;;;;;;;;;;24.05;51.97;99593.72;4406061;32;37874;-90
2022/09/08 06:54:54;;;;;;;;;;;;;;;24.05;52.29;99593.72;4407391;32;38851;-91
2022/09/08 06:57:21;;;;;;;;;;;;;;;24.30;52.20;99587.34;4402475;32;37165;-90
2022/09/08 07:00:11;;;;;;;;;;;;;;;24.47;51.74;99584.81;4419197;32;38070;-85
2022/09/08 07:02:42;;;;;;;;;;;;;;;24.61;50.39;99580.72;4410200;32;37732;-92
2022/09/08 07:05:11;;;;;;;;;;;;;;;24.80;50.26;99573.66;4403580;32;39617;-91
2022/09/08 07:07:53;;;;;;;;;;;;;;;25.04;50.11;99580.41;4415247;32;35568;-84
2022/09/08 07:10:23;;;;;;;;;;;;;;;25.51;48.07;99574.63;4404035;32;38078;-90
2022/09/08 07:12:55;;;;;;;;;;;;;;;25.67;47.87;99571.22;4406116;32;38294;-93
2022/09/08 07:15:32;;;;;;;;;;;;;;;25.85;47.49;99567.69;4402246;32;38648;-84
2022/09/08 07:18:01;;;;;;;;;;;;;;;26.25;46.59;99568.25;4416761;32;36844;-85
2022/09/08 07:20:29;;;;;;;;;;;;;;;26.53;46.17;99574.78;4415007;32;38367;-84
2022/09/08 07:22:58;;;;;;;;;;;;;;;26.37;46.96;99564.09;4416762;32;37964;-86
2022/09/08 07:25:34;;;;;;;;;;;;;;;26.75;45.61;99569.16;4403575;32;38378;-85
2022/09/08 07:28:07;;;;;;;;;;;;;;;26.78;45.36;99572.50;4430578;32;37049;-95
2022/09/08 07:30:35;;;;;;;;;;;;;;;27.01;45.75;99570.34;4417079;32;38474;-95
2022/09/08 07:33:23;;;;;;;;;;;;;;;27.25;44.56;99563.69;4430339;32;38983;-92
2022/09/08 07:36:02;;;;;;;;;;;;;;;27.45;45.00;99574.97;4429930;32;38962;-93
2022/09/08 07:38:40;;;;;;;;;;;;;;;27.23;46.11;99576.19;4430688;32;36944;-93
2022/09/08 07:41:08;;;;;;;;;;;;;;;27.55;44.41;99576.16;4430580;32;38765;-92
2022/09/08 07:43:35;;;;;;;;;;;;;;;27.77;43.19;99581.09;4415840;32;39129;-94
2022/09/08 07:46:12;;;;;;;;;;;;;;;28.02;42.84;99577.84;4430414;32;39506;-94
2022/09/08 07:48:49;;;;;;;;;;;;;;;27.94;43.19;99582.75;4415765;32;37319;-90
2022/09/08 07:51:17;;;;;;;;;;;;;;;28.17;43.53;99584.88;4390979;32;37101;-91
2022/09/08 07:54:03;;;;;;;;;;;;;;;28.24;43.19;99583.56;4430280;32;37830;-89
2022/09/08 07:56:41;;;;;;;;;;;;;;;28.42;42.70;99588.72;4430033;32;39890;-88
2022/09/08 07:59:28;;;;;;;;;;;;;;;28.63;42.57;99595.41;4429945;32;36818;-92
2022/09/08 08:02:10;;;;;;;;;;;;;;;28.81;40.88;99606.69;3235912;32;10000735;-91
2022/09/08 08:04:50;;;;;;;;;;;;;;;28.91;41.40;99599.84;4402803;32;39049;-92
2022/09/08 08:07:19;;;;;;;;;;;;;;;28.84;42.29;99600.31;4388382;32;39503;-88
2022/09/08 08:10:00;;;;;;;;;;;;;;;28.55;43.05;99596.81;4401670;32;37055;-89
2022/09/08 08:12:30;;;;;;;;;;;;;;;29.34;40.79;99604.25;4388628;32;38048;-86
2022/09/08 08:14:57;;;;;;;;;;;;;;;29.51;41.36;99606.66;4414608;32;38029;-87
2022/09/08 08:17:35;;;;;;;;;;;;;;;29.63;40.94;99610.34;4427682;32;39739;-89
2022/09/08 08:20:09;;;;;;;;;;;;;;;29.76;41.55;99611.25;4415175;32;36815;-91
2022/09/08 08:22:38;;;;;;;;;;;;;;;29.93;40.78;99612.78;4415134;32;39157;-90
2022/09/08 08:25:15;;;;;;;;;;;;;;;29.80;41.36;99607.44;4429458;32;38890;-89
2022/09/08 08:27:42;;;;;;;;;;;;;;;29.93;40.10;99607.44;4430269;32;39174;-91
2022/09/08 08:30:19;;;;;;;;;;;;;;;30.06;39.82;99602.13;4430024;32;37057;-92
2022/09/08 08:32:48;;;;;;;;;;;;;;;30.30;40.65;99612.94;4427351;32;38949;-92
2022/09/08 08:35:21;;;;;;;;;;;;;;;29.62;42.08;99614.84;4415898;32;38939;-92
2022/09/08 08:37:54;;;;;;;;;;;;;;;30.17;41.51;99614.72;4430505;32;39246;-91
2022/09/08 08:40:31;;;;;;;;;;;;;;;30.26;39.88;99611.47;4415846;32;36602;-93
2022/09/08 08:42:59;;;;;;;;;;;;;;;30.13;42.02;99612.28;4418146;32;37282;-90
2022/09/08 08:45:32;;;;;;;;;;;;;;;30.55;39.85;99614.78;4430018;32;38102;-91
2022/09/08 08:48:02;;;;;;;;;;;;;;;30.48;40.35;99619.69;4123409;32;10000317;-91
2022/09/08 08:50:48;;;;;;;;;;;;;;;30.99;37.72;99608.09;4430148;32;39678;-87
2022/09/08 08:53:42;;;;;;;;;;;;;;;30.62;39.18;99604.50;4416474;32;36824;-90
2022/09/08 08:56:30;;;;;;;;;;;;;;;30.69;40.67;99597.75;4415764;32;37814;-88
2022/09/08 08:59:17;;;;;;;;;;;;;;;30.67;40.71;99594.34;4415652;32;38537;-88
2022/09/08 09:01:49;;;;;;;;;;;;;;;30.59;41.38;99597.56;4429328;32;38905;-85
2022/09/08 09:04:23;;;;;;;;;;;;;;;30.81;38.19;99597.75;4415057;32;37919;-87
2022/09/08 09:06:58;;;;;;;;;;;;;;;30.32;41.16;99581.66;4425991;32;38441;-85
2022/09/08 09:09:57;;;;;;;;;;;;;;;30.35;40.11;99581.44;4415776;32;38049;-91
2022/09/08 09:12:44;;;;;;;;;;;;;;;31.37;37.48;99570.56;4389401;32;39366;-87
2022/09/08 09:15:18;;;;;;;;;;;;;;;30.87;41.27;99572.41;4427684;32;36805;-88
2022/09/08 09:18:09;;;;;;;;;;;;;;;31.01;39.01;99564.22;4404653;32;38221;-91
2022/09/08 09:20:39;;;;;;;;;;;;;;;31.04;40.85;99564.00;4427298;32;37708;-86
2022/09/08 09:23:13;;;;;;;;;;;;;;;31.30;39.85;99558.56;4429336;32;38673;-90
2022/09/08 09:25:43;;;;;;;;;;;;;;;31.24;39.09;99559.87;4429233;32;37198;-85
2022/09/08 09:28:25;;;;;;;;;;;;;;;31.60;37.04;99565.31;4084314;32;10008523;-88
2022/09/08 09:30:58;;;;;;;;;;;;;;;31.45;37.88;99552.09;4422866;32;37934;-89
2022/09/08 09:33:26;;;;;;;;;;;;;;;31.73;37.55;99550.00;4428704;32;38023;-89
2022/09/08 09:36:02;;;;;;;;;;;;;;;31.26;39.92;99546.38;4415186;32;38366;-96
2022/09/08 09:38:32;;;;;;;;;;;;;;;31.66;38.02;99538.06;4428429;32;38340;-88
2022/09/08 09:41:32;;;;;;;;;;;;;;;31.40;38.69;99532.88;4415239;32;39499;-86
2022/09/08 09:44:05;;;;;;;;;;;;;;;31.98;36.78;99532.09;4395716;32;38672;-84
2022/09/08 09:47:02;;;;;;;;;;;;;;;31.99;36.16;99534.63;4431095;32;38835;-86
2022/09/08 09:49:32;;;;;;;;;;;;;;;31.43;37.27;99538.00;4375625;32;38099;-90
2022/09/08 09:52:11;;;;;;;;;;;;;;;31.55;38.06;99532.66;4429894;32;38848;-86
2022/09/08 09:54:54;;;;;;;;;;;;;;;31.43;37.14;99532.66;4414711;32;36982;-86
2022/09/08 09:57:27;;;;;;;;;;;;;;;31.61;38.43;99534.88;4414353;32;39429;-82
2022/09/08 10:00:04;;;;;;;;;;;;;;;31.45;37.61;99519.97;4430668;32;37449;-93
2022/09/08 10:02:50;;;;;;;;;;;;;;;31.59;37.50;99537.69;4431329;32;37974;-90
2022/09/08 10:05:25;;;;;;;;;;;;;;;31.12;39.36;99528.69;4431684;32;37932;-89
2022/09/08 10:08:11;;;;;;;;;;;;;;;31.59;37.90;99540.38;4427112;32;39939;-91
2022/09/08 10:10:55;;;;;;;;;;;;;;;31.58;38.33;99537.78;4417228;32;37132;-94
2022/09/08 10:13:28;;;;;;;;;;;;;;;31.23;39.48;99530.56;4430881;32;38529;-90
2022/09/08 10:16:15;;;;;;;;;;;;;;;31.23;40.38;99525.22;4417164;32;39052;-89
2022/09/08 10:18:50;;;;;;;;;;;;;;;31.14;40.17;99525.91;4431259;32;38972;-93
2022/09/08 10:21:29;;;;;;;;;;;;;;;31.49;38.72;99524.16;4430361;32;37273;-86
2022/09/08 10:24:08;;;;;;;;;;;;;;;31.77;38.36;99518.50;4429178;32;38750;-90
2022/09/08 10:26:58;;;;;;;;;;;;;;;31.74;37.56;99514.22;4431071;32;39089;-88
2022/09/08 10:29:25;;;;;;;;;;;;;;;31.32;38.31;99507.63;4416759;32;38952;-89
2022/09/08 10:32:11;;;;;;;;;;;;;;;31.65;39.20;99504.22;4429656;32;37293;-91
2022/09/08 10:34:45;;;;;;;;;;;;;;;31.66;39.54;99500.59;4429461;32;39165;-93
2022/09/08 10:37:22;;;;;;;;;;;;;;;31.73;37.67;99501.84;4423386;32;39274;-91
2022/09/08 10:39:55;;;;;;;;;;;;;;;31.89;37.60;99497.03;4421512;32;39950;-86
2022/09/08 10:42:23;;;;;;;;;;;;;;;31.73;38.44;99504.50;4422770;32;37175;-90
2022/09/08 10:44:50;;;;;;;;;;;;;;;32.18;37.82;99507.28;4115089;32;9999784;-89
2022/09/08 10:47:36;;;;;;;;;;;;;;;32.16;37.71;99514.56;4405803;32;20008;-85
2022/09/08 10:50:18;;;;;;;;;;;;;;;32.09;38.25;99502.62;4420891;32;38424;-93
2022/09/08 10:52:54;;;;;;;;;;;;;;;31.87;39.06;99503.44;4412595;32;39073;-90
2022/09/08 10:55:28;;;;;;;;;;;;;;;32.06;37.99;99492.16;4420375;32;36666;-86
2022/09/08 10:58:10;;;;;;;;;;;;;;;31.87;38.84;99488.22;4421388;32;37571;-87
2022/09/08 11:00:48;;;;;;;;;;;;;;;32.21;37.42;99501.66;4421260;32;37469;-91
2022/09/08 11:03:25;;;;;;;;;;;;;;;31.72;38.52;99494.78;4396898;32;39123;-93
2022/09/08 11:06:08;;;;;;;;;;;;;;;32.02;39.81;99496.06;4409519;32;37031;-90
2022/09/08 11:08:52;;;;;;;;;;;;;;;32.29;37.79;99482.28;4400400;32;37530;-90
2022/09/08 11:11:22;;;;;;;;;;;;;;;31.76;37.71;99490.87;4407594;32;37971;-86
2022/09/08 11:14:11;;;;;;;;;;;;;;;32.07;38.93;99499.22;4421998;32;38764;-87
2022/09/08 11:16:39;;;;;;;;;;;;;;;32.35;37.88;99493.38;4405548;32;37073;-88
2022/09/08 11:19:21;;;;;;;;;;;;;;;32.06;35.05;99497.53;4420376;32;38882;-89
2022/09/08 11:22:20;;;;;;;;;;;;;;;32.41;36.36;99492.88;4415353;32;38838;-90
2022/09/08 11:24:48;;;;;;;;;;;;;;;32.62;35.40;99494.84;4427438;32;38978;-86
2022/09/08 11:27:33;;;;;;;;;;;;;;;32.43;35.86;99492.81;4411710;32;37488;-88
2022/09/08 11:30:00;;;;;;;;;;;;;;;32.34;34.72;99480.13;4414993;32;37875;-86
2022/09/08 11:32:34;;;;;;;;;;;;;;;32.52;35.44;99485.88;4421200;32;39706;-87
2022/09/08 11:35:14;;;;;;;;;;;;;;;32.10;34.48;99489.13;4409688;32;39778;-90
2022/09/08 11:38:01;;;;;;;;;;;;;;;32.15;37.29;99499.47;4424390;32;37274;-87
2022/09/08 11:40:47;;;;;;;;;;;;;;;32.21;35.66;99490.97;4418009;32;39329;-87
2022/09/08 11:43:27;;;;;;;;;;;;;;;32.40;34.02;99484.97;4399488;32;38199;-88
2022/09/08 11:46:13;;;;;;;;;;;;;;;32.05;34.21;99475.25;4399929;32;39031;-88
2022/09/08 11:48:59;;;;;;;;;;;;;;;31.66;35.42;99479.19;4385183;32;37483;-89
2022/09/08 11:52:04;;;;;;;;;;;;;;;32.01;34.78;99483.66;4394412;32;39224;-89
2022/09/08 11:55:11;;;;;;;;;;;;;;;31.78;34.58;99482.72;4397727;32;38164;-87
2022/09/08 11:57:45;;;;;;;;;;;;;;;32.00;35.25;99472.06;4399641;32;39745;-87
2022/09/08 12:00:21;;;;;;;;;;;;;;;31.67;35.59;99480.88;4385542;32;36234;-84
2022/09/08 12:03:04;;;;;;;;;;;;;;;31.96;34.83;99482.16;4368740;32;38093;-89
2022/09/08 12:05:37;;;;;;;;;;;;;;;31.58;35.20;99481.59;4351114;32;38224;-86
2022/09/08 12:08:24;;;;;;;;;;;;;;;31.88;37.15;99479.25;4382369;32;39069;-91
2022/09/08 12:11:15;;;;;;;;;;;;;;;31.64;35.19;99470.41;4393507;32;38098;-86
2022/09/08 12:14:01;;;;;;;;;;;;;;;31.88;37.00;99471.22;4385226;32;37590;-89
2022/09/08 12:16:55;;;;;;;;;;;;;;;31.73;34.54;99464.34;4401986;32;35851;-85
2022/09/08 12:19:41;;;;;;;;;;;;;;;31.54;35.74;99461.41;4415729;32;39342;-81
2022/09/08 12:22:27;;;;;;;;;;;;;;;31.86;36.12;99451.72;4430467;32;36910;-86
2022/09/08 12:24:58;;;;;;;;;;;;;;;31.72;35.15;99458.16;4430342;32;37871;-85
2022/09/08 12:28:06;;;;;;;;;;;;;;;31.62;35.93;99454.50;4407376;32;38844;-85
2022/09/08 12:30:52;;;;;;;;;;;;;;;31.87;36.19;99456.09;4334774;32;39433;-88
2022/09/08 12:33:28;;;;;;;;;;;;;;;31.80;35.69;99444.16;4414265;32;38047;-88
2022/09/08 12:35:56;;;;;;;;;;;;;;;31.87;35.98;99450.72;4413850;32;38720;-87
2022/09/08 12:38:26;;;;;;;;;;;;;;;31.84;34.70;99442.94;4400624;32;38065;-90
2022/09/08 12:40:53;;;;;;;;;;;;;;;31.72;34.79;99441.25;4414089;32;39371;-88
2022/09/08 12:43:32;;;;;;;;;;;;;;;32.08;35.17;99442.03;4414274;32;38034;-89
2022/09/08 12:46:11;;;;;;;;;;;;;;;32.15;36.42;99436.03;4402495;32;39155;-87
2022/09/08 12:49:08;;;;;;;;;;;;;;;32.36;34.30;99425.44;4382352;32;40565;-84
2022/09/08 12:51:36;;;;;;;;;;;;;;;31.96;34.87;99417.91;4382914;32;38478;-88
2022/09/08 12:54:07;;;;;;;;;;;;;;;32.26;34.98;99419.13;4372968;32;37197;-89
2022/09/08 12:56:34;;;;;;;;;;;;;;;32.27;37.72;99420.81;4384651;32;38152;-88
2022/09/08 12:59:02;;;;;;;;;;;;;;;32.06;34.94;99414.50;4398747;32;38828;-86
2022/09/08 13:01:43;;;;;;;;;;;;;;;32.22;35.10;99417.66;4383940;32;38218;-90
2022/09/08 13:04:23;;;;;;;;;;;;;;;32.23;34.93;99414.03;4386119;32;37063;-90
2022/09/08 13:06:54;;;;;;;;;;;;;;;32.21;34.24;99413.28;4384632;32;39003;-88
2022/09/08 13:09:23;;;;;;;;;;;;;;;32.34;34.12;99411.31;4398142;32;38164;-88
2022/09/08 13:12:00;;;;;;;;;;;;;;;32.05;35.56;99404.78;4384974;32;40121;-89
2022/09/08 13:14:39;;;;;;;;;;;;;;;32.10;34.59;99410.59;4398134;32;36880;-87
2022/09/08 13:17:11;;;;;;;;;;;;;;;31.74;34.11;99401.81;4369428;32;38009;-88
2022/09/08 13:19:43;;;;;;;;;;;;;;;32.01;33.95;99397.97;4371084;32;39339;-87
2022/09/08 13:22:16;;;;;;;;;;;;;;;31.97;33.47;99397.34;4361978;32;38868;-90